sensor_id;sensor_type;location;lat;lon;timestamp;temperature;humidity
5924;DHT22;2987;50.884;14.818;2023-01-28T00:00:24;0.80;99.90
5924;DHT22;2987;50.884;14.818;2023-01-28T00:02:53;1.00;99.90
5924;DHT22;2987;50.884;14.818;2023-01-28T00:05:23;1.00;99.90
5924;DHT22;2987;50.884;14.818;2023-01-28T00:07:52;1.00;99.90
5924;DHT22;2987;50.884;14.818;2023-01-28T00:10:28;0.80;99.90
5924;DHT22;2987;50.884;14.818;2023-01-28T00:13:13;1.00;99.90
5924;DHT22;2987;50.884;14.818;2023-01-28T00:15:45;1.00;99.90
5924;DHT22;2987;50.884;14.818;2023-01-28T00:18:17;0.90;99.90
5924;DHT22;2987;50.884;14.818;2023-01-28T00:21:22;0.90;99.90
5924;DHT22;2987;50.884;14.818;2023-01-28T00:23:56;0.90;99.90
5924;DHT22;2987;50.884;14.818;2023-01-28T00:26:25;0.90;99.90
5924;DHT22;2987;50.884;14.818;2023-01-28T00:28:56;0.90;99.90
5924;DHT22;2987;50.884;14.818;2023-01-28T00:31:53;0.90;99.90
5924;DHT22;2987;50.884;14.818;2023-01-28T00:34:26;1.00;99.90
5924;DHT22;2987;50.884;14.818;2023-01-28T00:36:55;1.00;99.90
5924;DHT22;2987;50.884;14.818;2023-01-28T00:39:27;1.00;99.90
5924;DHT22;2987;50.884;14.818;2023-01-28T00:41:57;0.90;99.90
5924;DHT22;2987;50.884;14.818;2023-01-28T00:44:27;1.10;99.90
5924;DHT22;2987;50.884;14.818;2023-01-28T00:46:57;0.80;99.90
5924;DHT22;2987;50.884;14.818;2023-01-28T00:49:26;0.90;99.90
5924;DHT22;2987;50.884;14.818;2023-01-28T00:51:57;1.10;99.90
5924;DHT22;2987;50.884;14.818;2023-01-28T00:54:33;0.90;99.90
5924;DHT22;2987;50.884;14.818;2023-01-28T00:57:04;0.90;99.90
5924;DHT22;2987;50.884;14.818;2023-01-28T00:59:47;1.30;99.90
5924;DHT22;2987;50.884;14.818;2023-01-28T01:02:18;0.90;99.90
5924;DHT22;2987;50.884;14.818;2023-01-28T01:04:49;0.90;99.90
5924;DHT22;2987;50.884;14.818;2023-01-28T01:07:36;1.40;99.90
5924;DHT22;2987;50.884;14.818;2023-01-28T01:10:14;0.90;99.90
5924;DHT22;2987;50.884;14.818;2023-01-28T01:12:47;0.90;99.90
5924;DHT22;2987;50.884;14.818;2023-01-28T01:15:19;1.10;99.90
5924;DHT22;2987;50.884;14.818;2023-01-28T01:18:12;0.90;99.90
5924;DHT22;2987;50.884;14.818;2023-01-28T01:20:41;0.90;99.90
5924;DHT22;2987;50.884;14.818;2023-01-28T01:23:14;1.10;99.90
5924;DHT22;2987;50.884;14.818;2023-01-28T01:25:44;1.10;99.90
5924;DHT22;2987;50.884;14.818;2023-01-28T01:28:18;1.40;99.90
5924;DHT22;2987;50.884;14.818;2023-01-28T01:30:49;1.10;99.90
5924;DHT22;2987;50.884;14.818;2023-01-28T01:33:21;1.10;99.90
5924;DHT22;2987;50.884;14.818;2023-01-28T01:35:54;1.30;99.90
5924;DHT22;2987;50.884;14.818;2023-01-28T01:38:28;1.10;99.90
5924;DHT22;2987;50.884;14.818;2023-01-28T01:41:01;1.20;99.90
5924;DHT22;2987;50.884;14.818;2023-01-28T01:43:52;1.10;99.90
5924;DHT22;2987;50.884;14.818;2023-01-28T01:49:22;1.10;99.90
5924;DHT22;2987;50.884;14.818;2023-01-28T01:51:57;1.30;99.90
5924;DHT22;2987;50.884;14.818;2023-01-28T01:54:37;1.10;99.90
5924;DHT22;2987;50.884;14.818;2023-01-28T01:57:15;1.10;99.90
5924;DHT22;2987;50.884;14.818;2023-01-28T01:59:58;1.30;99.90
5924;DHT22;2987;50.884;14.818;2023-01-28T02:02:46;1.10;99.90
5924;DHT22;2987;50.884;14.818;2023-01-28T02:05:32;1.30;99.90
5924;DHT22;2987;50.884;14.818;2023-01-28T02:08:01;1.10;99.90
5924;DHT22;2987;50.884;14.818;2023-01-28T02:11:06;1.30;99.90
5924;DHT22;2987;50.884;14.818;2023-01-28T02:13:42;1.20;99.90
5924;DHT22;2987;50.884;14.818;2023-01-28T02:16:13;1.20;99.90
5924;DHT22;2987;50.884;14.818;2023-01-28T02:18:44;1.10;99.90
5924;DHT22;2987;50.884;14.818;2023-01-28T02:21:39;1.30;99.90
5924;DHT22;2987;50.884;14.818;2023-01-28T02:33:04;1.10;99.90
5924;DHT22;2987;50.884;14.818;2023-01-28T02:35:40;0.90;99.90
5924;DHT22;2987;50.884;14.818;2023-01-28T02:38:32;0.90;99.90
5924;DHT22;2987;50.884;14.818;2023-01-28T02:41:31;0.90;99.90
5924;DHT22;2987;50.884;14.818;2023-01-28T02:44:03;0.90;99.90
5924;DHT22;2987;50.884;14.818;2023-01-28T02:46:35;0.80;99.90
5924;DHT22;2987;50.884;14.818;2023-01-28T02:49:39;0.90;99.90
5924;DHT22;2987;50.884;14.818;2023-01-28T02:55:51;0.90;99.90
5924;DHT22;2987;50.884;14.818;2023-01-28T02:58:36;0.90;99.90
5924;DHT22;2987;50.884;14.818;2023-01-28T03:06:57;0.90;99.90
5924;DHT22;2987;50.884;14.818;2023-01-28T03:09:32;0.90;99.90
5924;DHT22;2987;50.884;14.818;2023-01-28T03:12:21;0.90;99.90
5924;DHT22;2987;50.884;14.818;2023-01-28T03:15:16;0.90;99.90
5924;DHT22;2987;50.884;14.818;2023-01-28T03:21:17;0.90;99.90
5924;DHT22;2987;50.884;14.818;2023-01-28T03:24:16;0.90;99.90
5924;DHT22;2987;50.884;14.818;2023-01-28T03:27:18;0.90;99.90
5924;DHT22;2987;50.884;14.818;2023-01-28T03:30:22;0.90;99.90
5924;DHT22;2987;50.884;14.818;2023-01-28T03:33:20;0.80;99.90
5924;DHT22;2987;50.884;14.818;2023-01-28T03:36:11;0.70;99.90
5924;DHT22;2987;50.884;14.818;2023-01-28T03:38:59;0.70;99.90
5924;DHT22;2987;50.884;14.818;2023-01-28T03:41:33;0.70;99.90
5924;DHT22;2987;50.884;14.818;2023-01-28T03:44:08;0.70;99.90
5924;DHT22;2987;50.884;14.818;2023-01-28T03:47:05;0.70;99.90
5924;DHT22;2987;50.884;14.818;2023-01-28T03:49:39;0.70;99.90
5924;DHT22;2987;50.884;14.818;2023-01-28T03:52:27;0.70;99.90
5924;DHT22;2987;50.884;14.818;2023-01-28T03:55:33;0.70;99.90
5924;DHT22;2987;50.884;14.818;2023-01-28T03:58:02;0.60;99.90
5924;DHT22;2987;50.884;14.818;2023-01-28T04:00:38;0.60;99.90
5924;DHT22;2987;50.884;14.818;2023-01-28T04:03:21;0.90;99.90
5924;DHT22;2987;50.884;14.818;2023-01-28T04:06:01;0.70;99.90
5924;DHT22;2987;50.884;14.818;2023-01-28T04:08:51;0.60;99.90
5924;DHT22;2987;50.884;14.818;2023-01-28T04:11:33;0.90;99.90
5924;DHT22;2987;50.884;14.818;2023-01-28T04:14:04;0.70;99.90
5924;DHT22;2987;50.884;14.818;2023-01-28T04:16:45;0.70;99.90
5924;DHT22;2987;50.884;14.818;2023-01-28T04:19:16;0.60;99.90
5924;DHT22;2987;50.884;14.818;2023-01-28T04:21:47;0.50;99.90
5924;DHT22;2987;50.884;14.818;2023-01-28T04:24:19;0.50;99.90
5924;DHT22;2987;50.884;14.818;2023-01-28T04:26:50;0.50;99.90
5924;DHT22;2987;50.884;14.818;2023-01-28T04:29:21;0.60;99.90
5924;DHT22;2987;50.884;14.818;2023-01-28T04:32:02;0.40;99.90
5924;DHT22;2987;50.884;14.818;2023-01-28T04:34:52;0.60;99.90
5924;DHT22;2987;50.884;14.818;2023-01-28T04:37:43;0.40;99.90
5924;DHT22;2987;50.884;14.818;2023-01-28T04:40:34;0.60;99.90
5924;DHT22;2987;50.884;14.818;2023-01-28T04:43:24;0.60;99.90
5924;DHT22;2987;50.884;14.818;2023-01-28T04:46:17;0.40;99.90
5924;DHT22;2987;50.884;14.818;2023-01-28T04:49:06;0.50;99.90
5924;DHT22;2987;50.884;14.818;2023-01-28T04:51:47;0.50;99.90
5924;DHT22;2987;50.884;14.818;2023-01-28T04:54:26;0.40;99.90
5924;DHT22;2987;50.884;14.818;2023-01-28T04:57:00;0.50;99.90
5924;DHT22;2987;50.884;14.818;2023-01-28T04:59:32;0.40;99.90
5924;DHT22;2987;50.884;14.818;2023-01-28T05:02:03;0.60;99.90
5924;DHT22;2987;50.884;14.818;2023-01-28T05:04:33;0.40;99.90
5924;DHT22;2987;50.884;14.818;2023-01-28T05:07:03;0.10;99.90
5924;DHT22;2987;50.884;14.818;2023-01-28T05:09:36;0.10;99.90
5924;DHT22;2987;50.884;14.818;2023-01-28T05:12:06;0.20;99.90
5924;DHT22;2987;50.884;14.818;2023-01-28T05:14:38;0.40;99.90
5924;DHT22;2987;50.884;14.818;2023-01-28T05:17:18;0.10;99.90
5924;DHT22;2987;50.884;14.818;2023-01-28T05:19:48;0.40;99.90
5924;DHT22;2987;50.884;14.818;2023-01-28T05:22:29;0.20;99.90
5924;DHT22;2987;50.884;14.818;2023-01-28T05:25:17;0.20;99.90
5924;DHT22;2987;50.884;14.818;2023-01-28T05:27:51;0.10;99.90
5924;DHT22;2987;50.884;14.818;2023-01-28T05:30:22;0.10;99.90
5924;DHT22;2987;50.884;14.818;2023-01-28T05:33:01;0.10;99.90
5924;DHT22;2987;50.884;14.818;2023-01-28T05:35:38;0.40;99.90
5924;DHT22;2987;50.884;14.818;2023-01-28T05:38:12;0.40;99.90
5924;DHT22;2987;50.884;14.818;2023-01-28T05:40:42;0.40;99.90
5924;DHT22;2987;50.884;14.818;2023-01-28T05:43:11;0.20;99.90
5924;DHT22;2987;50.884;14.818;2023-01-28T05:45:47;0.20;99.90
5924;DHT22;2987;50.884;14.818;2023-01-28T05:48:29;0.20;99.90
5924;DHT22;2987;50.884;14.818;2023-01-28T05:51:25;0.20;99.90
5924;DHT22;2987;50.884;14.818;2023-01-28T05:54:00;0.10;99.90
5924;DHT22;2987;50.884;14.818;2023-01-28T05:56:41;0.20;99.90
5924;DHT22;2987;50.884;14.818;2023-01-28T05:59:12;0.20;99.90
5924;DHT22;2987;50.884;14.818;2023-01-28T06:02:04;0.20;99.90
5924;DHT22;2987;50.884;14.818;2023-01-28T06:04:34;0.20;99.90
5924;DHT22;2987;50.884;14.818;2023-01-28T06:07:04;0.20;99.90
5924;DHT22;2987;50.884;14.818;2023-01-28T06:09:35;0.20;99.90
5924;DHT22;2987;50.884;14.818;2023-01-28T06:12:08;0.20;99.90
5924;DHT22;2987;50.884;14.818;2023-01-28T06:15:00;0.20;99.90
5924;DHT22;2987;50.884;14.818;2023-01-28T06:17:50;0.20;99.90
5924;DHT22;2987;50.884;14.818;2023-01-28T06:20:42;0.20;99.90
5924;DHT22;2987;50.884;14.818;2023-01-28T06:23:14;0.20;99.90
5924;DHT22;2987;50.884;14.818;2023-01-28T06:25:46;0.20;99.90
5924;DHT22;2987;50.884;14.818;2023-01-28T06:28:16;0.20;99.90
5924;DHT22;2987;50.884;14.818;2023-01-28T06:30:49;0.20;99.90
5924;DHT22;2987;50.884;14.818;2023-01-28T06:33:22;0.00;99.90
5924;DHT22;2987;50.884;14.818;2023-01-28T06:36:17;0.00;99.90
5924;DHT22;2987;50.884;14.818;2023-01-28T06:38:56;0.00;99.90
5924;DHT22;2987;50.884;14.818;2023-01-28T06:41:26;0.00;99.90
5924;DHT22;2987;50.884;14.818;2023-01-28T06:43:57;0.00;99.90
5924;DHT22;2987;50.884;14.818;2023-01-28T06:46:26;0.00;99.90
5924;DHT22;2987;50.884;14.818;2023-01-28T06:48:57;0.00;99.90
5924;DHT22;2987;50.884;14.818;2023-01-28T06:51:27;-0.20;99.90
5924;DHT22;2987;50.884;14.818;2023-01-28T06:53:59;0.00;99.90
5924;DHT22;2987;50.884;14.818;2023-01-28T06:56:31;0.00;99.90
5924;DHT22;2987;50.884;14.818;2023-01-28T06:59:01;0.00;99.90
5924;DHT22;2987;50.884;14.818;2023-01-28T07:01:32;0.00;99.90
5924;DHT22;2987;50.884;14.818;2023-01-28T07:04:02;-0.10;99.90
5924;DHT22;2987;50.884;14.818;2023-01-28T07:06:33;-0.10;99.90
5924;DHT22;2987;50.884;14.818;2023-01-28T07:09:04;-0.10;99.90
5924;DHT22;2987;50.884;14.818;2023-01-28T07:11:35;-0.10;99.90
5924;DHT22;2987;50.884;14.818;2023-01-28T07:14:05;0.10;99.90
5924;DHT22;2987;50.884;14.818;2023-01-28T07:16:38;-0.10;99.90
5924;DHT22;2987;50.884;14.818;2023-01-28T07:19:08;-0.10;99.90
5924;DHT22;2987;50.884;14.818;2023-01-28T07:21:37;-0.10;99.90
5924;DHT22;2987;50.884;14.818;2023-01-28T07:24:46;-0.10;99.90
5924;DHT22;2987;50.884;14.818;2023-01-28T07:27:14;-0.10;99.90
5924;DHT22;2987;50.884;14.818;2023-01-28T07:29:47;0.00;99.90
5924;DHT22;2987;50.884;14.818;2023-01-28T07:32:18;-0.10;99.90
5924;DHT22;2987;50.884;14.818;2023-01-28T07:34:53;0.00;99.90
5924;DHT22;2987;50.884;14.818;2023-01-28T07:37:31;0.00;99.90
5924;DHT22;2987;50.884;14.818;2023-01-28T07:40:07;-0.20;99.90
5924;DHT22;2987;50.884;14.818;2023-01-28T07:42:40;-0.20;99.90
5924;DHT22;2987;50.884;14.818;2023-01-28T07:45:14;-0.20;99.90
5924;DHT22;2987;50.884;14.818;2023-01-28T07:47:52;-0.20;99.90
5924;DHT22;2987;50.884;14.818;2023-01-28T07:50:46;-0.10;99.90
5924;DHT22;2987;50.884;14.818;2023-01-28T07:53:21;-0.10;99.90
5924;DHT22;2987;50.884;14.818;2023-01-28T07:55:59;-0.30;99.90
5924;DHT22;2987;50.884;14.818;2023-01-28T07:58:28;-0.30;99.90
5924;DHT22;2987;50.884;14.818;2023-01-28T08:01:02;-0.40;99.90
5924;DHT22;2987;50.884;14.818;2023-01-28T08:03:34;-0.20;99.90
5924;DHT22;2987;50.884;14.818;2023-01-28T08:06:05;-0.20;99.90
5924;DHT22;2987;50.884;14.818;2023-01-28T08:08:39;-0.20;99.90
5924;DHT22;2987;50.884;14.818;2023-01-28T08:11:13;-0.20;99.90
5924;DHT22;2987;50.884;14.818;2023-01-28T08:13:52;0.00;99.90
5924;DHT22;2987;50.884;14.818;2023-01-28T08:16:21;-0.20;99.90
5924;DHT22;2987;50.884;14.818;2023-01-28T08:18:53;-0.20;99.90
5924;DHT22;2987;50.884;14.818;2023-01-28T08:21:29;-0.20;99.90
5924;DHT22;2987;50.884;14.818;2023-01-28T08:24:17;-0.20;99.90
5924;DHT22;2987;50.884;14.818;2023-01-28T08:26:49;-0.20;99.90
5924;DHT22;2987;50.884;14.818;2023-01-28T08:29:32;-0.30;99.90
5924;DHT22;2987;50.884;14.818;2023-01-28T08:32:10;-0.30;99.90
5924;DHT22;2987;50.884;14.818;2023-01-28T08:34:56;-0.30;99.90
5924;DHT22;2987;50.884;14.818;2023-01-28T08:37:31;-0.40;99.90
5924;DHT22;2987;50.884;14.818;2023-01-28T08:40:01;-0.10;99.90
5924;DHT22;2987;50.884;14.818;2023-01-28T08:42:33;0.00;99.90
5924;DHT22;2987;50.884;14.818;2023-01-28T08:45:09;-0.20;99.90
5924;DHT22;2987;50.884;14.818;2023-01-28T08:48:00;-0.30;99.90
5924;DHT22;2987;50.884;14.818;2023-01-28T08:50:33;-0.30;99.90
5924;DHT22;2987;50.884;14.818;2023-01-28T08:53:08;-0.20;99.90
5924;DHT22;2987;50.884;14.818;2023-01-28T08:55:41;-0.20;99.90
5924;DHT22;2987;50.884;14.818;2023-01-28T08:58:15;-0.30;99.90
5924;DHT22;2987;50.884;14.818;2023-01-28T09:00:50;-0.30;99.90
5924;DHT22;2987;50.884;14.818;2023-01-28T09:03:20;-0.30;99.90
5924;DHT22;2987;50.884;14.818;2023-01-28T09:05:49;-0.30;99.90
5924;DHT22;2987;50.884;14.818;2023-01-28T09:08:20;-0.30;99.90
5924;DHT22;2987;50.884;14.818;2023-01-28T09:10:56;-0.30;99.90
5924;DHT22;2987;50.884;14.818;2023-01-28T09:13:27;-0.30;99.90
5924;DHT22;2987;50.884;14.818;2023-01-28T09:16:13;-0.30;99.90
5924;DHT22;2987;50.884;14.818;2023-01-28T09:18:49;-0.30;99.90
5924;DHT22;2987;50.884;14.818;2023-01-28T09:21:27;-0.20;99.90
5924;DHT22;2987;50.884;14.818;2023-01-28T09:23:57;-0.20;99.90
5924;DHT22;2987;50.884;14.818;2023-01-28T09:26:28;-0.20;99.90
5924;DHT22;2987;50.884;14.818;2023-01-28T09:29:07;-0.30;99.90
5924;DHT22;2987;50.884;14.818;2023-01-28T09:31:41;-0.10;99.90
5924;DHT22;2987;50.884;14.818;2023-01-28T09:34:14;-0.30;99.90
5924;DHT22;2987;50.884;14.818;2023-01-28T09:36:43;-0.10;99.90
5924;DHT22;2987;50.884;14.818;2023-01-28T09:39:11;-0.10;99.90
5924;DHT22;2987;50.884;14.818;2023-01-28T09:45:01;-0.10;99.90
5924;DHT22;2987;50.884;14.818;2023-01-28T09:50:43;0.00;99.90
5924;DHT22;2987;50.884;14.818;2023-01-28T09:56:08;0.00;99.90
5924;DHT22;2987;50.884;14.818;2023-01-28T09:58:43;-0.20;99.90
5924;DHT22;2987;50.884;14.818;2023-01-28T10:01:37;-0.20;99.90
5924;DHT22;2987;50.884;14.818;2023-01-28T10:04:35;-0.20;99.90
5924;DHT22;2987;50.884;14.818;2023-01-28T10:10:00;-0.20;99.90
5924;DHT22;2987;50.884;14.818;2023-01-28T10:15:51;-0.10;99.90
5924;DHT22;2987;50.884;14.818;2023-01-28T10:18:33;0.00;99.90
5924;DHT22;2987;50.884;14.818;2023-01-28T10:24:07;0.00;99.90
5924;DHT22;2987;50.884;14.818;2023-01-28T10:26:42;0.00;99.90
5924;DHT22;2987;50.884;14.818;2023-01-28T10:29:13;0.00;99.90
5924;DHT22;2987;50.884;14.818;2023-01-28T10:31:58;0.00;99.90
5924;DHT22;2987;50.884;14.818;2023-01-28T10:34:35;0.10;99.90
5924;DHT22;2987;50.884;14.818;2023-01-28T10:37:05;-0.10;99.90
5924;DHT22;2987;50.884;14.818;2023-01-28T10:39:47;0.00;99.90
5924;DHT22;2987;50.884;14.818;2023-01-28T10:42:35;0.00;99.90
5924;DHT22;2987;50.884;14.818;2023-01-28T10:47:51;0.00;99.90
5924;DHT22;2987;50.884;14.818;2023-01-28T10:50:29;0.20;99.90
5924;DHT22;2987;50.884;14.818;2023-01-28T10:53:02;0.20;99.90
5924;DHT22;2987;50.884;14.818;2023-01-28T10:58:26;0.10;99.90
5924;DHT22;2987;50.884;14.818;2023-01-28T11:01:02;0.10;99.90
5924;DHT22;2987;50.884;14.818;2023-01-28T11:03:36;0.20;99.90
5924;DHT22;2987;50.884;14.818;2023-01-28T11:06:24;0.40;99.90
5924;DHT22;2987;50.884;14.818;2023-01-28T11:08:56;0.60;99.90
5924;DHT22;2987;50.884;14.818;2023-01-28T11:11:26;0.20;99.90
5924;DHT22;2987;50.884;14.818;2023-01-28T11:14:00;0.30;99.90
5924;DHT22;2987;50.884;14.818;2023-01-28T11:16:29;0.60;99.90
5924;DHT22;2987;50.884;14.818;2023-01-28T11:19:03;0.40;99.90
5924;DHT22;2987;50.884;14.818;2023-01-28T11:21:37;0.60;99.90
5924;DHT22;2987;50.884;14.818;2023-01-28T11:24:14;0.30;99.90
5924;DHT22;2987;50.884;14.818;2023-01-28T11:26:52;0.40;99.90
5924;DHT22;2987;50.884;14.818;2023-01-28T11:29:26;0.60;99.90
5924;DHT22;2987;50.884;14.818;2023-01-28T11:32:23;0.50;99.90
5924;DHT22;2987;50.884;14.818;2023-01-28T11:34:56;0.40;99.90
5924;DHT22;2987;50.884;14.818;2023-01-28T11:37:29;0.40;99.90
5924;DHT22;2987;50.884;14.818;2023-01-28T11:40:03;0.60;99.90
5924;DHT22;2987;50.884;14.818;2023-01-28T11:42:47;0.40;99.90
5924;DHT22;2987;50.884;14.818;2023-01-28T11:45:35;0.30;99.90
5924;DHT22;2987;50.884;14.818;2023-01-28T11:48:33;0.40;99.90
5924;DHT22;2987;50.884;14.818;2023-01-28T11:54:12;0.40;99.90
5924;DHT22;2987;50.884;14.818;2023-01-28T11:57:02;0.70;99.90
5924;DHT22;2987;50.884;14.818;2023-01-28T11:59:50;0.50;99.90
5924;DHT22;2987;50.884;14.818;2023-01-28T12:02:45;0.70;99.90
5924;DHT22;2987;50.884;14.818;2023-01-28T12:11:42;0.70;99.90
5924;DHT22;2987;50.884;14.818;2023-01-28T12:28:17;0.70;99.90
5924;DHT22;2987;50.884;14.818;2023-01-28T12:36:36;0.40;99.90
5924;DHT22;2987;50.884;14.818;2023-01-28T12:41:41;0.50;99.90
5924;DHT22;2987;50.884;14.818;2023-01-28T12:44:25;0.50;99.90
5924;DHT22;2987;50.884;14.818;2023-01-28T12:47:02;0.40;99.90
5924;DHT22;2987;50.884;14.818;2023-01-28T12:49:59;0.40;99.90
5924;DHT22;2987;50.884;14.818;2023-01-28T12:55:25;0.40;99.90
5924;DHT22;2987;50.884;14.818;2023-01-28T13:01:18;0.40;99.90
5924;DHT22;2987;50.884;14.818;2023-01-28T13:04:00;0.40;99.90
5924;DHT22;2987;50.884;14.818;2023-01-28T13:06:50;0.10;99.90
5924;DHT22;2987;50.884;14.818;2023-01-28T13:09:26;0.20;99.90
5924;DHT22;2987;50.884;14.818;2023-01-28T13:11:58;0.00;99.90
5924;DHT22;2987;50.884;14.818;2023-01-28T13:14:36;0.00;99.90
5924;DHT22;2987;50.884;14.818;2023-01-28T13:17:31;0.00;99.90
5924;DHT22;2987;50.884;14.818;2023-01-28T13:20:14;0.00;99.90
5924;DHT22;2987;50.884;14.818;2023-01-28T13:23:03;-0.30;99.90
5924;DHT22;2987;50.884;14.818;2023-01-28T13:25:53;-0.30;99.90
5924;DHT22;2987;50.884;14.818;2023-01-28T13:28:31;-0.40;99.90
5924;DHT22;2987;50.884;14.818;2023-01-28T13:31:07;-0.20;99.90
5924;DHT22;2987;50.884;14.818;2023-01-28T13:33:40;-0.30;99.90
5924;DHT22;2987;50.884;14.818;2023-01-28T13:36:27;-0.30;99.90
5924;DHT22;2987;50.884;14.818;2023-01-28T13:41:54;-0.30;99.90
5924;DHT22;2987;50.884;14.818;2023-01-28T13:44:32;-0.40;99.90
5924;DHT22;2987;50.884;14.818;2023-01-28T13:47:29;-0.30;99.90
5924;DHT22;2987;50.884;14.818;2023-01-28T13:50:11;-0.50;99.90
5924;DHT22;2987;50.884;14.818;2023-01-28T13:53:19;-0.50;99.90
5924;DHT22;2987;50.884;14.818;2023-01-28T13:55:59;-0.40;99.90
5924;DHT22;2987;50.884;14.818;2023-01-28T13:58:50;-0.50;99.90
5924;DHT22;2987;50.884;14.818;2023-01-28T14:01:47;-0.30;99.90
5924;DHT22;2987;50.884;14.818;2023-01-28T14:15:47;-0.50;99.90
5924;DHT22;2987;50.884;14.818;2023-01-28T14:18:25;-0.70;99.90
5924;DHT22;2987;50.884;14.818;2023-01-28T14:21:03;-0.50;99.90
5924;DHT22;2987;50.884;14.818;2023-01-28T14:23:52;-0.70;99.90
5924;DHT22;2987;50.884;14.818;2023-01-28T14:29:46;-0.70;99.90
5924;DHT22;2987;50.884;14.818;2023-01-28T14:32:25;-0.60;99.90
5924;DHT22;2987;50.884;14.818;2023-01-28T14:35:11;-0.60;99.90
5924;DHT22;2987;50.884;14.818;2023-01-28T14:37:47;-0.80;99.90
5924;DHT22;2987;50.884;14.818;2023-01-28T14:40:17;-0.70;99.90
5924;DHT22;2987;50.884;14.818;2023-01-28T14:42:55;-0.70;99.90
5924;DHT22;2987;50.884;14.818;2023-01-28T15:02:29;-1.00;99.90
5924;DHT22;2987;50.884;14.818;2023-01-28T15:05:20;-0.90;99.90
5924;DHT22;2987;50.884;14.818;2023-01-28T15:08:02;-0.90;99.90
5924;DHT22;2987;50.884;14.818;2023-01-28T15:10:43;-0.80;99.90
5924;DHT22;2987;50.884;14.818;2023-01-28T15:13:33;-1.00;99.90
5924;DHT22;2987;50.884;14.818;2023-01-28T15:16:05;-1.10;99.90
5924;DHT22;2987;50.884;14.818;2023-01-28T15:18:44;-0.90;99.90
5924;DHT22;2987;50.884;14.818;2023-01-28T15:21:32;-0.90;99.90
5924;DHT22;2987;50.884;14.818;2023-01-28T15:24:14;-0.90;99.90
5924;DHT22;2987;50.884;14.818;2023-01-28T15:26:46;-0.90;99.90
5924;DHT22;2987;50.884;14.818;2023-01-28T15:29:32;-0.90;99.90
5924;DHT22;2987;50.884;14.818;2023-01-28T15:32:25;-0.90;99.90
5924;DHT22;2987;50.884;14.818;2023-01-28T15:34:59;-0.90;99.90
5924;DHT22;2987;50.884;14.818;2023-01-28T15:37:28;-0.90;99.90
5924;DHT22;2987;50.884;14.818;2023-01-28T15:40:02;-0.90;99.90
5924;DHT22;2987;50.884;14.818;2023-01-28T15:42:37;-0.90;99.90
5924;DHT22;2987;50.884;14.818;2023-01-28T15:45:17;-0.90;99.90
5924;DHT22;2987;50.884;14.818;2023-01-28T15:47:50;-0.90;99.90
5924;DHT22;2987;50.884;14.818;2023-01-28T15:50:35;-0.90;99.90
5924;DHT22;2987;50.884;14.818;2023-01-28T15:53:09;-0.90;99.90
5924;DHT22;2987;50.884;14.818;2023-01-28T15:55:44;-0.80;99.90
5924;DHT22;2987;50.884;14.818;2023-01-28T15:58:18;-1.00;99.90
5924;DHT22;2987;50.884;14.818;2023-01-28T16:01:11;-1.00;99.90
5924;DHT22;2987;50.884;14.818;2023-01-28T16:03:43;-1.00;99.90
5924;DHT22;2987;50.884;14.818;2023-01-28T16:06:20;-1.20;99.90
5924;DHT22;2987;50.884;14.818;2023-01-28T16:08:55;-1.00;99.90
5924;DHT22;2987;50.884;14.818;2023-01-28T16:11:34;-1.30;99.90
5924;DHT22;2987;50.884;14.818;2023-01-28T16:14:05;-1.10;99.90
5924;DHT22;2987;50.884;14.818;2023-01-28T16:16:36;-0.90;99.90
5924;DHT22;2987;50.884;14.818;2023-01-28T16:19:24;-0.90;99.90
5924;DHT22;2987;50.884;14.818;2023-01-28T16:21:59;-0.90;99.90
5924;DHT22;2987;50.884;14.818;2023-01-28T16:24:30;-0.90;99.90
5924;DHT22;2987;50.884;14.818;2023-01-28T16:27:21;-0.80;99.90
5924;DHT22;2987;50.884;14.818;2023-01-28T16:29:53;-1.10;99.90
5924;DHT22;2987;50.884;14.818;2023-01-28T16:32:38;-1.10;99.90
5924;DHT22;2987;50.884;14.818;2023-01-28T16:35:14;-1.00;99.90
5924;DHT22;2987;50.884;14.818;2023-01-28T16:37:45;-1.20;99.90
5924;DHT22;2987;50.884;14.818;2023-01-28T16:40:30;-1.30;99.90
5924;DHT22;2987;50.884;14.818;2023-01-28T16:42:59;-1.10;99.90
5924;DHT22;2987;50.884;14.818;2023-01-28T16:45:27;-1.00;99.90
5924;DHT22;2987;50.884;14.818;2023-01-28T16:47:58;-1.30;99.90
5924;DHT22;2987;50.884;14.818;2023-01-28T16:50:27;-1.10;99.90
5924;DHT22;2987;50.884;14.818;2023-01-28T16:53:04;-1.00;99.90
5924;DHT22;2987;50.884;14.818;2023-01-28T16:55:34;-1.10;99.90
5924;DHT22;2987;50.884;14.818;2023-01-28T16:58:08;-1.10;99.90
5924;DHT22;2987;50.884;14.818;2023-01-28T17:00:39;-1.00;99.90
5924;DHT22;2987;50.884;14.818;2023-01-28T17:03:11;-1.20;99.90
5924;DHT22;2987;50.884;14.818;2023-01-28T17:05:42;-1.10;99.90
5924;DHT22;2987;50.884;14.818;2023-01-28T17:08:18;-1.10;99.90
5924;DHT22;2987;50.884;14.818;2023-01-28T17:10:53;-1.10;99.90
5924;DHT22;2987;50.884;14.818;2023-01-28T17:13:24;-1.10;99.90
5924;DHT22;2987;50.884;14.818;2023-01-28T17:15:55;-1.40;99.90
5924;DHT22;2987;50.884;14.818;2023-01-28T17:18:33;-1.00;99.90
5924;DHT22;2987;50.884;14.818;2023-01-28T17:21:04;-1.20;99.90
5924;DHT22;2987;50.884;14.818;2023-01-28T17:23:40;-1.30;99.90
5924;DHT22;2987;50.884;14.818;2023-01-28T17:26:17;-0.90;99.90
5924;DHT22;2987;50.884;14.818;2023-01-28T17:28:52;-0.80;99.90
5924;DHT22;2987;50.884;14.818;2023-01-28T17:31:31;-1.00;99.90
5924;DHT22;2987;50.884;14.818;2023-01-28T17:33:59;-1.10;99.90
5924;DHT22;2987;50.884;14.818;2023-01-28T17:36:40;-0.90;99.90
5924;DHT22;2987;50.884;14.818;2023-01-28T17:39:13;-0.90;99.90
5924;DHT22;2987;50.884;14.818;2023-01-28T17:41:46;-1.10;99.90
5924;DHT22;2987;50.884;14.818;2023-01-28T17:44:15;-0.90;99.90
5924;DHT22;2987;50.884;14.818;2023-01-28T17:46:48;-1.30;99.90
5924;DHT22;2987;50.884;14.818;2023-01-28T17:49:20;-1.10;99.90
5924;DHT22;2987;50.884;14.818;2023-01-28T17:51:48;-1.10;99.90
5924;DHT22;2987;50.884;14.818;2023-01-28T17:54:19;-1.00;99.90
5924;DHT22;2987;50.884;14.818;2023-01-28T17:56:47;-1.20;99.90
5924;DHT22;2987;50.884;14.818;2023-01-28T17:59:18;-1.30;99.90
5924;DHT22;2987;50.884;14.818;2023-01-28T18:01:48;-1.10;99.90
5924;DHT22;2987;50.884;14.818;2023-01-28T18:04:22;-1.10;99.90
5924;DHT22;2987;50.884;14.818;2023-01-28T18:06:53;-1.00;99.90
5924;DHT22;2987;50.884;14.818;2023-01-28T18:09:24;-1.30;99.90
5924;DHT22;2987;50.884;14.818;2023-01-28T18:11:55;-1.10;99.90
5924;DHT22;2987;50.884;14.818;2023-01-28T18:14:25;-1.10;99.90
5924;DHT22;2987;50.884;14.818;2023-01-28T18:16:56;-1.00;99.90
5924;DHT22;2987;50.884;14.818;2023-01-28T18:19:28;-1.10;99.90
5924;DHT22;2987;50.884;14.818;2023-01-28T18:22:02;-1.10;99.90
5924;DHT22;2987;50.884;14.818;2023-01-28T18:24:37;-1.00;99.90
5924;DHT22;2987;50.884;14.818;2023-01-28T18:27:07;-1.10;99.90
5924;DHT22;2987;50.884;14.818;2023-01-28T18:29:36;-1.10;99.90
5924;DHT22;2987;50.884;14.818;2023-01-28T18:32:06;-1.10;99.90
5924;DHT22;2987;50.884;14.818;2023-01-28T18:34:35;-1.10;99.90
5924;DHT22;2987;50.884;14.818;2023-01-28T18:37:06;-1.00;99.90
5924;DHT22;2987;50.884;14.818;2023-01-28T18:39:39;-1.10;99.90
5924;DHT22;2987;50.884;14.818;2023-01-28T18:42:10;-1.10;99.90
5924;DHT22;2987;50.884;14.818;2023-01-28T18:44:42;-1.10;99.90
5924;DHT22;2987;50.884;14.818;2023-01-28T18:47:11;-1.10;99.90
5924;DHT22;2987;50.884;14.818;2023-01-28T18:49:40;-1.10;99.90
5924;DHT22;2987;50.884;14.818;2023-01-28T18:52:14;-1.00;99.90
5924;DHT22;2987;50.884;14.818;2023-01-28T18:54:46;-1.30;99.90
5924;DHT22;2987;50.884;14.818;2023-01-28T18:57:18;-1.10;99.90
5924;DHT22;2987;50.884;14.818;2023-01-28T18:59:48;-1.20;99.90